Sunday, May 27, 2018, 9:57 AM GMT
Back to Local

CYMX, Montreal / Mirabel

Location: , , Canada Lat: 45.683
Local Time: 9:57 AM GMT ( 9:57 GMT) Lon: -74.033
Time Zone: GMT Elev: 269 ft

Show me the last for .
Show Decoded

2018-05-27 09:00 METAR CYMX 270900Z 06005KT 010V100 45SM SCT120 BKN180 BKN200 BKN240 11/04 A3001
                 RMK AC3AC2CI1CI1 SLP165 =
2018-05-27 08:00 METAR CYMX 270800Z 05005KT 320V090 25SM FEW180 SCT200 BKN240 12/04 A3001 RMK
                 AC1CI3CI3 SLP166 =
2018-05-27 07:00 METAR CYMX 270700Z 05004KT 310V090 25SM SCT200 BKN240 11/05 A3002 RMK CI3CI3
                 SLP168 =
2018-05-27 06:00 METAR CYMX 270600Z VRB02KT 25SM FEW200 BKN240 12/06 A3001 RMK CI2CI4 SLP166 =
2018-05-27 05:00 METAR CYMX 270500Z VRB02KT 25SM FEW200 BKN240 12/04 A3002 RMK CI1CI4 SLP168 =
2018-05-27 04:00 METAR CYMX 270400Z VRB02KT 25SM FEW210 BKN240 14/05 A3001 RMK CI1CI4 SLP165 =
2018-05-27 03:00 METAR CYMX 270300Z 00000KT 25SM FEW210 BKN250 14/06 A3000 RMK CI2CI4 SLP160 =
2018-05-27 02:00 METAR CYMX 270200Z 06003KT 360V120 25SM FEW160 FEW200 SCT220 BKN250 17/04 A2998
                 RMK AC1CI1CI3CI3 AC TR SLP153 DENSITY ALT 500FT =
2018-05-27 01:00 METAR CYMX 270100Z 05003KT 030V100 25SM FEW045 FEW160 SCT200 BKN220 BKN250 18/05
                 A2995 RMK CU1AC1CI2CI2CI2 CU TR SLP145 DENSITY ALT 600FT =
2018-05-27 00:00 METAR CYMX 270000Z 09007KT 45SM FEW050 FEW160 SCT220 BKN250 19/05 A2993 RMK
                 CU1AC1CI3CI3 CU TR SLP139 DENSITY ALT 800FT =
2018-05-26 23:00 METAR CYMX 262300Z 10004KT 45SM FEW050 FEW160 SCT220 BKN250 21/09 A2991 RMK
                 CU1AC1CC3CI3 CU TR SLP130 DENSITY ALT 1100FT =
2018-05-26 22:00 METAR CYMX 262200Z 09007KT 45SM FEW050 FEW160 SCT220 BKN260 23/10 A2989 RMK
                 CU1AC1CC2CI4 CU TR SLP124 DENSITY ALT 1300FT =
2018-05-26 21:00 METAR CYMX 262100Z 11006KT 080V150 45SM FEW035 FEW150 BKN230 22/10 A2988 RMK
                 CU1AC1CI5 SLP121 DENSITY ALT 1300FT =
2018-05-26 20:00 METAR CYMX 262000Z 14006KT 110V200 45SM FEW040 FEW090 SCT180 BKN220 22/10 A2986
                 RMK CU1AC1AC2CI4 CU TR SLP115 DENSITY ALT 1200FT =
2018-05-26 19:00 METAR CYMX 261900Z 15005KT 110V170 45SM FEW030 FEW120 BKN220 BKN250 22/14 A2985
                 RMK CU1AC1CI4CI1 SLP108 DENSITY ALT 1200FT =
2018-05-26 18:00 METAR CYMX 261800Z 12005KT 070V150 45SM FEW030 FEW090 BKN210 22/13 A2983 RMK
                 CU1AC1CI5 SLP105 DENSITY ALT 1200FT =
2018-05-26 17:00 METAR CYMX 261700Z 07007KT 360V100 45SM FEW025 FEW040 SCT080 BKN210 21/13 A2983
                 RMK SC1SC1AC1CI4 SLP104 DENSITY ALT 1100FT =
2018-05-26 16:00 METAR CYMX 261600Z 07007KT 030V100 35SM FEW022 FEW039TCU SCT071 BKN100 BKN220
                 18/12 A2981 RMK SC1TCU2AC2AC1CI1 SC TR SLP098 DENSITY ALT 900FT =
2018-05-26 15:00 METAR CYMX 261500Z VRB03KT 15SM FEW006 SCT015 BKN039 OVC088 20/18 A2980 RMK
                 SF1SC3SC2AC3 SF TR SLP093 DENSITY ALT 1100FT =
2018-05-26 14:42 METAR CYMX 261442Z 00000KT 10SM SCT006 BKN035 BKN045 OVC099 19/18 A2979 RMK
                 SF3SC2SC1AC2 VIS S QUAD 5 SLP089 DENSITY ALT 1000FT =
2018-05-26 14:00 METAR CYMX 261400Z 35002KT 5SM -SHRA BR SCT004 BKN028 BKN045 OVC100 18/18 A2977
                 RMK SF3SC2SC2AC1 CVCTV CLD EMBD PRESRR SLP084 DENSITY ALT 900FT =
2018-05-26 13:00 METAR CYMX 261300Z VRB04KT 4SM -SHRA BR SCT003 BKN045 OVC100 18/17 A2975 RMK
                 FG2SF2SC3AC1 CVCTV CLDS EMBD PRESRR SLP075 DENSITY ALT 900FT =
2018-05-26 12:35 METAR CYMX 261235Z 20002KT 4SM -SHRA BR BKN004 BKN025 OVC045 17/17 A2974 RMK
                 FG2SF3SC2SC1 CVCTV CLDS SLP071 DENSITY ALT 900FT =
2018-05-26 12:00 METAR CYMX 261200Z 28002KT 2SM -SHRA BR BKN002 OVC020 17/17 A2975 RMK FG3SF3SC2
                 CVCTV CLDS SLP076 DENSITY ALT 800FT =
2018-05-26 11:30 METAR CYMX 261130Z 25003KT 190V280 2SM -SHRA BR SCT003 BKN060 OVC098 17/17 A2971
                 RMK FG3SF1SC2AC2 VIS W 1/2 CVCTV CLDS EMBD SLP063 DENSITY ALT 900FT =
2018-05-26 11:00 METAR CYMX 261100Z 19004KT 6SM -SHRA BR FEW004 SCT065 BKN083 OVC100 17/17 A2969
                 RMK SF1SC3AC2AC2 CVCTV CLDB EMBD SLP057 DENSITY ALT 900FT =
2018-05-26 10:51 METAR CYMX 261051Z 20004KT 130V210 6SM BR FEW004 SCT065 BKN089 OVC120 17/17
                 A2968 RMK SF1SC3AC3AC1 CVCTV CLDS EMBD SLP053 DENSITY ALT 900FT =
2018-05-26 10:18 METAR CYMX 261018Z CCA 01003KT 240V030 5SM -SHRA BR FEW005 SCT071 BKN099 OVC120
                 17/17 A2969 RMK SF1AC2AC3AC2 CVCTV CLDS EMBD SLP057 DENSITY ALT 900FT =
2018-05-26 10:00 METAR CYMX 261000Z 00000KT 3SM -TSRA BR SCT005 BKN071 OVC120 17/17 A2969 RMK
                 FG2SF1AC2AC3 CVCTV CLDS EMBD PRESFR SLP054 DENSITY ALT 900FT =

Support USWX by starting your Amazon purchase here.